Flight Briefing for CPX256

Departure Arrival
Princess Juliana International Airport (TNCM)
Click to view FAA NOTAMS
Grantley Adams International Airport (TBPB)
Click to view FAA NOTAMS
Departure Time Arrival Time
N/A N/A
Aircraft Distance
B767-300BDSF 365nm
Departure METAR Arrival METAR
TNCM 152100Z 13012KT 100V170 9999 VCSH FEW018 BKN037 26/20 Q1015 NOSIG RMK A2998 ADJ SHWRS N / VIRGA SSE LGT HZ ALSEC TBPB 152000Z 10016KT 9999 SCT018 28/22 Q1014 NOSIG
Suggested Route
PJM B520 ANU UA632 BGI


View recent IFR Routes data
Notes



Charts and Procedures

Charts for TNCM
No chart available
Charts for TBPB
No chart available

Ventusky Weather